sensor_id;sensor_type;location;lat;lon;timestamp;pressure;altitude;pressure_sealevel;temperature;humidity
66664;BME280;59683;51.428;-1.994;2023-02-19T10:22:39;102035.59;;;9.39;100.00
66664;BME280;59683;51.428;-1.994;2023-02-19T10:25:05;102046.16;;;9.56;100.00
66664;BME280;59683;51.428;-1.994;2023-02-19T10:27:31;102063.22;;;9.66;100.00
66664;BME280;59683;51.428;-1.994;2023-02-19T10:29:57;102058.50;;;9.89;100.00
66664;BME280;59683;51.428;-1.994;2023-02-19T10:32:24;102048.03;;;10.03;100.00
66664;BME280;59683;51.428;-1.994;2023-02-19T10:37:34;102062.25;;;10.34;100.00
66664;BME280;59683;51.428;-1.994;2023-02-19T10:40:01;102067.47;;;10.51;100.00
66664;BME280;59683;51.428;-1.994;2023-02-19T10:42:26;102063.34;;;10.77;100.00
66664;BME280;59683;51.428;-1.994;2023-02-19T10:44:55;102064.34;;;10.90;100.00
66664;BME280;59683;51.428;-1.994;2023-02-19T10:47:24;102068.09;;;11.32;100.00
66664;BME280;59683;51.428;-1.994;2023-02-19T10:49:52;102074.28;;;11.76;100.00
66664;BME280;59683;51.428;-1.994;2023-02-19T10:52:25;102077.81;;;12.19;100.00
66664;BME280;59683;51.428;-1.994;2023-02-19T10:54:55;102092.78;;;12.20;100.00
66664;BME280;59683;51.428;-1.994;2023-02-19T10:57:29;102075.47;;;11.86;100.00
66664;BME280;59683;51.428;-1.994;2023-02-19T11:00:19;102063.66;;;11.76;100.00
66664;BME280;59683;51.428;-1.994;2023-02-19T11:02:47;102049.00;;;11.70;100.00
66664;BME280;59683;51.428;-1.994;2023-02-19T11:05:17;102045.31;;;11.87;100.00
66664;BME280;59683;51.428;-1.994;2023-02-19T11:07:49;102049.41;;;11.93;100.00
66664;BME280;59683;51.428;-1.994;2023-02-19T11:10:33;102048.75;;;11.89;100.00
66664;BME280;59683;51.428;-1.994;2023-02-19T11:13:02;102048.75;;;11.89;100.00
66664;BME280;59683;51.428;-1.994;2023-02-19T11:15:29;102042.63;;;11.73;100.00
66664;BME280;59683;51.428;-1.994;2023-02-19T11:18:03;102031.84;;;11.61;100.00
66664;BME280;59683;51.428;-1.994;2023-02-19T11:20:32;102031.09;;;11.74;100.00
66664;BME280;59683;51.428;-1.994;2023-02-19T11:23:00;102038.09;;;12.03;100.00
66664;BME280;59683;51.428;-1.994;2023-02-19T11:25:29;102032.91;;;11.87;100.00
66664;BME280;59683;51.428;-1.994;2023-02-19T11:28:05;102046.16;;;12.16;100.00
66664;BME280;59683;51.428;-1.994;2023-02-19T11:33:26;102039.59;;;12.22;100.00
66664;BME280;59683;51.428;-1.994;2023-02-19T11:38:39;102054.97;;;12.02;100.00
66664;BME280;59683;51.428;-1.994;2023-02-19T11:41:25;102045.97;;;11.90;100.00
66664;BME280;59683;51.428;-1.994;2023-02-19T11:49:51;102058.88;;;11.97;100.00
66664;BME280;59683;51.428;-1.994;2023-02-19T11:58:12;102063.28;;;12.25;100.00
66664;BME280;59683;51.428;-1.994;2023-02-19T12:00:51;102040.25;;;12.11;100.00
66664;BME280;59683;51.428;-1.994;2023-02-19T12:17:29;102030.06;;;12.46;100.00
66664;BME280;59683;51.428;-1.994;2023-02-19T12:36:46;101989.22;;;12.34;100.00
66664;BME280;59683;51.428;-1.994;2023-02-19T12:44:54;101988.91;;;12.39;100.00
66664;BME280;59683;51.428;-1.994;2023-02-19T12:47:27;101982.69;;;12.26;100.00
66664;BME280;59683;51.428;-1.994;2023-02-19T12:52:46;101968.03;;;12.47;100.00
66664;BME280;59683;51.428;-1.994;2023-02-19T12:57:52;101970.31;;;12.66;100.00
66664;BME280;59683;51.428;-1.994;2023-02-19T13:00:28;101966.31;;;12.46;100.00
66664;BME280;59683;51.428;-1.994;2023-02-19T13:03:01;101973.59;;;12.57;100.00
66664;BME280;59683;51.428;-1.994;2023-02-19T13:05:39;101976.47;;;12.67;100.00
66664;BME280;59683;51.428;-1.994;2023-02-19T13:08:35;101982.03;;;12.76;100.00
66664;BME280;59683;51.428;-1.994;2023-02-19T13:11:15;101970.50;;;12.63;100.00
66664;BME280;59683;51.428;-1.994;2023-02-19T13:16:38;101962.47;;;12.77;100.00
66664;BME280;59683;51.428;-1.994;2023-02-19T13:19:09;101960.44;;;12.81;100.00
66664;BME280;59683;51.428;-1.994;2023-02-19T13:21:40;101954.50;;;12.77;100.00
66664;BME280;59683;51.428;-1.994;2023-02-19T13:24:34;101962.59;;;12.76;100.00
66664;BME280;59683;51.428;-1.994;2023-02-19T13:35:52;101948.56;;;12.86;100.00
66664;BME280;59683;51.428;-1.994;2023-02-19T13:38:21;101941.00;;;12.68;100.00
66664;BME280;59683;51.428;-1.994;2023-02-19T13:40:58;101950.41;;;12.59;100.00
66664;BME280;59683;51.428;-1.994;2023-02-19T13:43:31;101941.78;;;12.43;100.00
66664;BME280;59683;51.428;-1.994;2023-02-19T13:46:05;101933.88;;;12.41;100.00
66664;BME280;59683;51.428;-1.994;2023-02-19T13:48:37;101931.50;;;12.51;100.00
66664;BME280;59683;51.428;-1.994;2023-02-19T13:59:38;101951.28;;;12.05;100.00
66664;BME280;59683;51.428;-1.994;2023-02-19T14:02:12;101956.50;;;12.07;100.00
66664;BME280;59683;51.428;-1.994;2023-02-19T14:04:57;101959.41;;;12.17;100.00
66664;BME280;59683;51.428;-1.994;2023-02-19T14:09:56;101957.56;;;12.31;100.00
66664;BME280;59683;51.428;-1.994;2023-02-19T14:12:33;101959.09;;;12.21;100.00
66664;BME280;59683;51.428;-1.994;2023-02-19T14:17:49;101944.50;;;12.41;100.00
66664;BME280;59683;51.428;-1.994;2023-02-19T14:22:59;101935.28;;;12.34;100.00
66664;BME280;59683;51.428;-1.994;2023-02-19T14:30:44;101942.38;;;12.33;100.00
66664;BME280;59683;51.428;-1.994;2023-02-19T14:33:14;101940.09;;;12.42;100.00
66664;BME280;59683;51.428;-1.994;2023-02-19T14:35:44;101943.25;;;12.34;100.00
66664;BME280;59683;51.428;-1.994;2023-02-19T14:38:35;101930.66;;;12.23;100.00
66664;BME280;59683;51.428;-1.994;2023-02-19T14:41:02;101923.03;;;12.19;100.00
66664;BME280;59683;51.428;-1.994;2023-02-19T14:43:28;101920.75;;;12.12;100.00
66664;BME280;59683;51.428;-1.994;2023-02-19T14:46:20;101925.28;;;12.10;100.00
66664;BME280;59683;51.428;-1.994;2023-02-19T14:48:48;101920.28;;;12.06;100.00
66664;BME280;59683;51.428;-1.994;2023-02-19T14:51:38;101912.03;;;12.10;100.00
66664;BME280;59683;51.428;-1.994;2023-02-19T14:57:27;101898.38;;;11.89;100.00
66664;BME280;59683;51.428;-1.994;2023-02-19T15:12:51;101893.50;;;11.55;100.00
66664;BME280;59683;51.428;-1.994;2023-02-19T15:18:17;101879.00;;;11.46;100.00
66664;BME280;59683;51.428;-1.994;2023-02-19T15:20:45;101891.41;;;11.46;100.00
66664;BME280;59683;51.428;-1.994;2023-02-19T15:23:15;101880.97;;;11.57;100.00
66664;BME280;59683;51.428;-1.994;2023-02-19T15:25:42;101889.28;;;11.65;100.00
66664;BME280;59683;51.428;-1.994;2023-02-19T15:31:30;101883.78;;;12.09;100.00
66664;BME280;59683;51.428;-1.994;2023-02-19T15:33:55;101885.66;;;12.87;100.00
66664;BME280;59683;51.428;-1.994;2023-02-19T15:36:48;101877.25;;;13.31;100.00
66664;BME280;59683;51.428;-1.994;2023-02-19T15:39:19;101886.81;;;13.71;100.00
66664;BME280;59683;51.428;-1.994;2023-02-19T15:41:50;101884.16;;;13.95;100.00
66664;BME280;59683;51.428;-1.994;2023-02-19T15:44:52;101889.91;;;14.01;100.00
66664;BME280;59683;51.428;-1.994;2023-02-19T15:49:57;101866.16;;;13.74;100.00
66664;BME280;59683;51.428;-1.994;2023-02-19T15:57:35;101872.59;;;14.31;100.00
66664;BME280;59683;51.428;-1.994;2023-02-19T16:00:17;101867.03;;;14.58;100.00
66664;BME280;59683;51.428;-1.994;2023-02-19T16:02:44;101869.31;;;14.51;100.00
66664;BME280;59683;51.428;-1.994;2023-02-19T16:05:21;101866.66;;;14.27;100.00
66664;BME280;59683;51.428;-1.994;2023-02-19T16:10:35;101862.91;;;12.96;100.00
66664;BME280;59683;51.428;-1.994;2023-02-19T16:13:02;101872.25;;;13.27;100.00
66664;BME280;59683;51.428;-1.994;2023-02-19T16:15:30;101871.09;;;13.05;100.00
66664;BME280;59683;51.428;-1.994;2023-02-19T16:17:56;101879.28;;;13.28;100.00
66664;BME280;59683;51.428;-1.994;2023-02-19T16:20:32;101869.91;;;12.97;100.00
66664;BME280;59683;51.428;-1.994;2023-02-19T16:23:02;101872.34;;;12.74;100.00
66664;BME280;59683;51.428;-1.994;2023-02-19T16:25:35;101872.00;;;12.01;100.00
66664;BME280;59683;51.428;-1.994;2023-02-19T16:28:10;101875.78;;;11.97;100.00
66664;BME280;59683;51.428;-1.994;2023-02-19T16:30:36;101894.22;;;11.71;100.00
